Latest Weather Observations for Longreach

IDQ60801

Issued at 12:35 pm EST Saturday 22 November 2014 (issued every 30 minutes, with the page automatically refreshed every 10 minutes)

About weather observations | Map of weather stations | Latest weather observations for QLD | Other Formats
Station Details ID: 036031 Name: LONGREACH AERO Lat: -23.44 Lon: 144.28 Height: 192.2 m
Data from the previous 72 hours. | See also: Recent months at Longreach
Date/Time
EST
Temp
°C
App
Temp
°C
Dew
Point
Rel
Hum
%
Delta-T
°C
Wind Press
QNH
hPa
Press
MSL
hPa
Rain
since 9 am
mm
Dir
 
Spd
km/h
Gust
km/h
Spd
kts
Gust
kts
22/12:30pm 40.0 37.7 10.5 17 17.7 NNW 13 19 7 10 1010.7 - 0.0
22/12:00pm 39.2 36.0 9.8 17 17.4 N 17 28 9 15 1011.1 1009.8 0.0
22/11:30am 38.9 35.3 10.4 18 17.0 NNW 20 30 11 16 1011.6 - 0.0
22/11:00am 38.5 35.2 11.0 19 16.5 N 19 28 10 15 1011.9 - 0.0
22/10:30am 37.7 35.2 12.3 22 15.5 NW 17 26 9 14 1012.1 - 0.0
22/10:00am 36.6 34.7 11.9 22 14.9 W 13 19 7 10 1012.2 - 0.0
22/09:30am 35.5 33.0 12.4 24 14.0 NW 17 28 9 15 1012.4 - 0.0
22/09:00am 34.2 32.1 12.5 27 13.1 NW 15 22 8 12 1012.7 1011.5 0.0
22/08:30am 34.0 32.0 12.6 27 12.9 NW 15 20 8 11 1012.5 - 0.0
22/08:00am 32.8 30.0 12.7 29 12.1 NNW 19 26 10 14 1012.4 - 0.0
22/07:30am 31.9 30.9 13.4 32 11.2 N 11 13 6 7 1012.3 - 0.0
22/07:00am 30.5 29.6 13.6 35 10.2 N 11 13 6 7 1012.1 - 0.0
22/06:30am 28.8 26.9 13.0 37 9.4 NNE 15 19 8 10 1012.0 - 0.0
22/06:00am 26.9 26.0 12.6 41 8.4 ENE 9 13 5 7 1011.8 1010.6 0.0
22/05:30am 26.1 27.0 12.8 43 7.8 CALM 0 6 0 3 1011.4 - 0.0
22/05:00am 26.0 25.6 12.9 44 7.7 NNE 7 9 4 5 1010.9 - 0.0
22/04:30am 27.0 25.3 12.3 40 8.6 NE 13 15 7 8 1010.6 - 0.0
22/04:00am 27.5 25.8 12.3 39 8.9 NNE 13 15 7 8 1010.6 - 0.0
22/03:30am 28.2 26.7 13.1 39 9.0 NNE 13 15 7 8 1010.1 - 0.0
22/03:00am 29.9 28.4 13.0 35 10.1 NE 13 19 7 10 1010.0 1008.7 0.0
22/02:30am 29.4 26.4 12.1 34 10.2 E 19 20 10 11 1009.6 - 0.0
22/02:00am 28.6 28.0 12.3 36 9.6 N 7 11 4 6 1009.3 - 0.0
22/01:30am 29.1 28.7 13.0 37 9.6 NE 7 9 4 5 1009.6 - 0.0
22/01:00am 29.2 28.8 13.1 37 9.6 N 7 9 4 5 1009.9 - 0.0
22/12:30am 30.0 29.7 13.4 36 10.0 W 7 9 4 5 1010.1 - 0.0
22/12:00am 30.4 29.7 13.1 34 10.4 N 9 11 5 6 1010.1 1008.8 0.0
 
Date/Time
EST
Temp
°C
App
Temp
°C
Dew
Point
Rel
Hum
%
Delta-T
°C
Wind Press
QNH
hPa
Press
MSL
hPa
Rain
since 9 am
mm
Dir
 
Spd
km/h
Gust
km/h
Spd
kts
Gust
kts
21/11:30pm 31.4 31.2 14.7 36 10.3 NNE 9 11 5 6 1010.6 - 0.0
21/11:00pm 32.5 30.2 13.0 30 11.8 ENE 17 20 9 11 1010.4 - 0.0
21/10:30pm 33.7 31.7 12.7 28 12.7 N 15 19 8 10 1010.4 - 0.0
21/10:00pm 34.5 29.5 12.2 26 13.4 N 30 33 16 18 1010.0 - 0.0
21/09:27pm 35.8 29.5 8.9 19 15.5 N 32 41 17 22 1010.4 - 0.0
21/09:00pm 34.2 30.7 7.3 19 15.0 NE 15 17 8 9 1009.2 1008.0 0.0
21/08:30pm 35.0 32.5 9.7 21 14.7 ESE 13 13 7 7 1008.4 - 0.0
21/08:00pm 36.4 33.3 8.9 18 15.9 ESE 15 17 8 9 1008.0 - 0.0
21/07:30pm 37.9 35.4 6.6 14 17.6 SSE 9 11 5 6 1007.5 - 0.0
21/07:00pm 39.0 35.6 7.6 15 18.0 SE 15 17 8 9 1007.1 - 0.0
21/06:30pm 40.3 37.0 6.5 13 19.1 SE 13 19 7 10 1006.5 - 0.0
21/06:09pm 40.3 32.8 4.3 11 19.7 SE 33 52 18 28 1006.4 - 0.0
21/05:56pm 39.5 30.2 5.7 12 18.8 SE 44 52 24 28 1006.4 - 0.0
21/05:49pm 39.7 32.7 6.8 13 18.7 SSE 33 52 18 28 1006.4 - 0.0
21/05:30pm 41.5 40.0 9.1 14 19.1 W 7 15 4 8 1006.1 - 0.0
21/05:00pm 41.6 39.7 9.0 14 19.2 SW 9 13 5 7 1005.8 - 0.0
21/04:30pm 42.4 38.9 7.1 12 20.3 SSW 15 22 8 12 1005.8 - 0.0
21/04:00pm 42.2 38.5 6.3 11 20.4 W 15 20 8 11 1005.9 - 0.0
21/03:30pm 41.9 40.1 9.6 14 19.2 S 9 19 5 10 1006.4 - 0.0
21/03:00pm 42.4 39.5 6.7 11 20.5 SW 11 17 6 9 1006.6 1005.3 0.0
21/02:30pm 42.4 40.3 9.7 14 19.5 NNE 11 17 6 9 1007.2 - 0.0
21/02:00pm 42.5 39.9 9.2 13 19.8 NNW 13 17 7 9 1007.8 - 0.0
21/01:30pm 41.9 37.3 9.8 14 19.2 N 24 30 13 16 1008.4 - 0.0
21/01:00pm 41.0 37.6 10.7 16 18.3 NNE 19 26 10 14 1009.0 - 0.0
21/12:30pm 40.5 37.7 13.3 20 17.0 NNW 20 32 11 17 1009.4 - 0.0
21/12:00pm 39.8 36.3 14.6 22 16.0 NNW 26 33 14 18 1010.1 1008.8 0.0
21/11:30am 38.6 34.7 14.5 24 15.2 N 28 41 15 22 1010.5 - 0.0
21/11:00am 37.9 34.1 14.8 25 14.6 N 28 39 15 21 1011.0 - 0.0
21/10:30am 36.2 33.4 15.3 28 13.2 N 24 33 13 18 1011.7 - 0.0
21/10:00am 35.4 32.0 15.7 31 12.5 N 28 39 15 21 1012.1 - 0.0
21/09:30am 33.8 30.6 15.3 33 11.6 NNE 26 37 14 20 1012.3 - 0.0
21/09:00am 33.5 30.0 15.5 34 11.3 NNE 28 37 15 20 1012.3 1011.1 0.0
21/08:30am 31.5 27.1 15.1 37 10.2 NNE 32 41 17 22 1012.2 - 0.0
21/08:00am 30.5 26.1 15.2 39 9.5 NNE 32 37 17 20 1012.2 - 0.0
21/07:30am 29.2 24.7 14.9 41 8.8 NNE 32 41 17 22 1012.1 - 0.0
21/07:00am 28.9 23.8 14.9 42 8.6 NNE 35 46 19 25 1011.7 - 0.0
21/06:30am 28.4 23.5 15.2 44 8.1 NNE 35 46 19 25 1011.1 - 0.0
21/06:00am 27.9 23.5 15.6 47 7.6 NNE 33 43 18 23 1010.7 1009.4 0.0
21/05:30am 28.2 23.5 15.8 47 7.7 NNE 35 48 19 26 1010.1 - 0.0
21/05:00am 28.9 23.5 15.9 45 8.1 NNE 39 52 21 28 1009.5 - 0.0
21/04:51am 29.1 24.9 15.6 44 8.4 NNE 32 52 17 28 1009.5 - 0.0
21/04:30am 29.8 25.5 15.5 42 8.9 NNE 32 41 17 22 1009.1 - 0.0
21/04:00am 30.1 27.5 15.0 40 9.3 NNE 22 32 12 17 1009.2 - 0.0
21/03:30am 30.4 28.0 13.7 36 10.1 NNE 19 30 10 16 1009.0 - 0.0
21/03:00am 30.9 27.8 11.7 30 11.3 NNE 19 24 10 13 1008.7 1007.5 0.0
21/02:30am 30.6 28.2 11.5 30 11.2 NNE 15 20 8 11 1008.6 - 0.0
21/02:00am 29.2 27.1 12.5 35 9.9 NE 15 17 8 9 1008.3 - 0.0
21/01:30am 30.1 27.8 12.9 34 10.3 NE 17 22 9 12 1008.3 - 0.0
21/01:00am 29.7 27.6 13.6 37 9.7 NE 17 22 9 12 1008.4 - 0.0
21/12:30am 30.3 27.9 13.8 36 10.0 ENE 19 24 10 13 1008.6 - 0.0
21/12:00am 31.0 28.1 13.0 33 10.8 ENE 20 26 11 14 1008.7 1007.5 0.0
 
Date/Time
EST
Temp
°C
App
Temp
°C
Dew
Point
Rel
Hum
%
Delta-T
°C
Wind Press
QNH
hPa
Press
MSL
hPa
Rain
since 9 am
mm
Dir
 
Spd
km/h
Gust
km/h
Spd
kts
Gust
kts
20/11:30pm 31.8 28.6 11.2 28 12.1 ENE 19 22 10 12 1008.8 - 0.0
20/11:00pm 31.9 27.9 8.1 22 13.3 E 19 28 10 15 1008.9 - 0.0
20/10:30pm 30.3 26.6 4.4 19 13.5 NE 13 15 7 8 1008.7 - 0.0
20/10:00pm 31.1 26.5 3.7 17 14.2 E 17 22 9 12 1008.7 - 0.0
20/09:30pm 33.2 29.4 3.9 16 15.4 SSW 13 15 7 8 1008.4 - 0.0
20/09:00pm 34.8 31.5 4.6 15 16.2 S 11 13 6 7 1008.0 1006.8 0.0
20/08:30pm 34.8 31.9 6.6 17 15.6 SSW 11 13 6 7 1007.9 - 0.0
20/08:00pm 35.5 33.0 8.0 18 15.6 SSW 11 13 6 7 1007.6 - 0.0
20/07:30pm 37.1 34.9 7.8 16 16.7 SW 9 13 5 7 1007.2 - 0.0
20/07:00pm 38.9 34.9 3.1 11 19.1 SW 13 15 7 8 1006.8 - 0.0
20/06:30pm 40.5 37.5 6.2 12 19.4 WSW 11 13 6 7 1006.4 - 0.0
20/06:00pm 41.0 38.0 6.0 12 19.8 WNW 11 17 6 9 1006.1 1004.8 0.0
20/05:30pm 41.6 37.2 4.8 10 20.5 NW 17 22 9 12 1005.7 - 0.0
20/05:00pm 41.0 38.5 8.0 13 19.2 WNW 11 17 6 9 1005.5 - 0.0
20/04:30pm 41.7 38.0 6.5 12 20.1 W 15 22 8 12 1005.6 - 0.0
20/04:00pm 41.2 37.3 7.1 12 19.6 NNE 17 26 9 14 1005.9 - 0.0
20/03:30pm 41.2 36.1 6.1 12 19.8 N 22 30 12 16 1006.4 - 0.0
20/03:00pm 41.4 37.9 7.2 12 19.7 WNW 15 26 8 14 1006.8 1005.5 0.0
20/02:30pm 41.5 39.5 10.0 15 18.8 WNW 11 19 6 10 1007.2 - 0.0
20/02:00pm 40.8 37.2 8.5 14 18.9 WSW 17 28 9 15 1007.8 - 0.0
20/01:30pm 39.4 36.8 9.3 16 17.7 NW 13 20 7 11 1008.5 - 0.0
20/01:00pm 40.2 35.6 6.5 13 19.1 N 20 33 11 18 1009.1 - 0.0
20/12:30pm 39.3 35.8 10.3 17 17.3 NNW 19 35 10 19 1009.6 - 0.0
20/12:00pm 38.6 35.8 13.3 22 15.7 N 20 35 11 19 1010.3 1009.0 0.0
20/11:30am 37.6 34.2 13.8 24 14.8 NE 24 33 13 18 1010.9 - 0.0
20/11:00am 36.2 32.9 16.0 30 12.9 NNE 28 33 15 18 1011.4 - 0.0
20/10:30am 36.2 33.0 16.4 31 12.7 NNE 28 37 15 20 1011.9 - 0.0
20/10:00am 34.4 31.0 16.8 35 11.3 NNE 30 41 16 22 1012.2 - 0.0
20/09:30am 33.2 29.5 17.4 39 10.2 NE 33 44 18 24 1012.3 - 0.0
20/09:00am 32.6 28.5 17.4 40 9.8 NNE 35 48 19 26 1012.5 1011.3 0.0
20/08:37am 31.9 28.4 17.4 42 9.3 NE 32 50 17 27 1012.5 - 0.0
20/08:30am 31.7 27.6 17.4 42 9.2 NNE 35 50 19 27 1012.5 - 0.0
20/08:00am 31.2 26.5 16.9 42 9.1 NE 37 46 20 25 1012.5 - 0.0
20/07:30am 30.6 25.9 15.9 41 9.2 NE 35 48 19 26 1012.1 - 0.0
20/07:00am 29.9 24.2 15.2 41 9.1 NE 39 54 21 29 1011.7 - 0.0
20/06:58am 29.9 25.0 15.2 41 9.1 NE 35 54 19 29 1011.7 - 0.0
20/06:30am 28.6 25.6 16.7 48 7.5 ENE 28 35 15 19 1011.4 - 0.0
20/06:00am 27.3 24.4 17.0 53 6.5 ENE 28 35 15 19 1011.0 1009.7 0.0
20/05:30am 26.9 25.1 16.9 54 6.3 E 22 30 12 16 1010.7 - 0.0
20/05:00am 26.8 24.4 16.5 53 6.4 E 24 30 13 16 1010.4 - 0.0
20/04:30am 27.0 24.3 15.6 49 7.0 E 24 32 13 17 1010.2 - 0.0
20/04:00am 27.3 23.9 12.5 40 8.7 E 22 33 12 18 1010.0 - 0.0
20/03:30am 27.4 23.4 9.0 31 10.2 ESE 20 28 11 15 1009.5 - 0.0
20/03:00am 26.6 22.0 3.5 22 11.6 SE 17 22 9 12 1009.3 1008.1 0.0
20/02:37am 27.4 22.5 1.9 19 12.5 SSE 17 22 9 12 1009.0 - 0.0
20/02:30am 27.4 22.4 1.5 18 12.6 SSE 17 19 9 10 1009.0 - 0.0
20/02:19am 27.4 22.3 0.8 17 12.8 SSE 17 19 9 10 1009.0 - 0.0
20/02:00am 27.9 22.6 -0.5 15 13.4 SSE 17 19 9 10 1008.9 - 0.0
20/01:30am 28.4 22.9 -2.0 13 14.0 SSE 17 19 9 10 1009.1 - 0.0
20/01:00am 29.3 23.8 -2.4 12 14.6 S 17 20 9 11 1009.3 - 0.0
20/12:30am 29.2 23.8 -1.3 13 14.3 S 17 22 9 12 1009.5 - 0.0
20/12:00am 30.6 25.5 -2.2 12 15.3 S 15 19 8 10 1009.7 1008.5 0.0
 
Date/Time
EST
Temp
°C
App
Temp
°C
Dew
Point
Rel
Hum
%
Delta-T
°C
Wind Press
QNH
hPa
Press
MSL
hPa
Rain
since 9 am
mm
Dir
 
Spd
km/h
Gust
km/h
Spd
kts
Gust
kts
19/11:30pm 31.3 25.2 -2.1 11 15.7 S 20 28 11 15 1009.9 - 0.0
19/11:00pm 31.5 25.6 -2.1 11 15.8 S 19 22 10 12 1010.0 - 0.0
19/10:30pm 31.5 26.3 0.3 13 15.3 S 17 22 9 12 1010.0 - 0.0
19/10:00pm 31.3 27.1 1.8 15 14.8 S 13 17 7 9 1010.0 - 0.0
19/09:30pm 32.0 27.8 1.5 14 15.3 S 13 17 7 9 1009.7 - 0.0
19/09:00pm 33.9 29.6 1.3 12 16.5 S 13 17 7 9 1009.4 1008.2 0.0
19/08:30pm 34.2 30.6 2.8 14 16.3 SSW 11 15 6 8 1009.2 - 0.0
19/08:00pm 34.7 31.0 2.1 13 16.8 SSW 11 15 6 8 1009.1 - 0.0
19/07:30pm 35.1 31.6 3.4 13 16.7 SW 11 13 6 7 1009.0 - 0.0
19/07:00pm 36.9 32.5 0.6 10 18.5 SW 13 15 7 8 1008.7 - 0.0
19/06:30pm 38.6 33.3 -0.5 8 19.8 WSW 17 19 9 10 1008.5 - 0.0
19/06:00pm 39.5 34.5 -1.2 8 20.5 W 15 26 8 14 1008.3 1007.1 0.0
19/05:30pm 39.8 34.4 -1.3 7 20.7 W 17 26 9 14 1008.2 - 0.0
19/05:00pm 40.2 35.2 -1.0 7 20.9 WSW 15 26 8 14 1008.3 - 0.0
19/04:30pm 40.4 35.1 -0.4 8 20.9 SW 17 30 9 16 1008.4 - 0.0
19/04:00pm 40.8 35.4 -1.7 7 21.4 WSW 17 22 9 12 1008.5 - 0.0
19/03:30pm 40.0 35.1 -0.7 8 20.7 SW 15 26 8 14 1008.8 - 0.0
19/03:00pm 40.5 35.2 -0.6 8 21.0 W 17 26 9 14 1009.3 1008.1 0.0
19/02:30pm 39.9 35.8 0.0 8 20.5 WSW 11 24 6 13 1009.5 - 0.0
19/02:00pm 40.0 35.9 -0.2 8 20.6 WSW 11 26 6 14 1010.2 - 0.0
19/01:30pm 40.4 34.7 -1.0 7 21.0 W 19 33 10 18 1010.7 - 0.0
19/01:00pm 39.9 33.9 0.9 9 20.3 SW 22 32 12 17 1011.3 - 0.0

Other Formats:

Comma delimited format used in spreadsheet applications
http://www.bom.gov.au/fwo/IDQ60801/IDQ60801.94346.axf

JavaScript Object Notation format (JSON) in row-major order
http://www.bom.gov.au/fwo/IDQ60801/IDQ60801.94346.json